sensor_id;sensor_type;location;lat;lon;timestamp;pressure;altitude;pressure_sealevel;temperature;humidity
21803;BME280;18591;47.080;22.214;2022-08-19T00:02:00;99106.03;;;27.34;44.56
21803;BME280;18591;47.080;22.214;2022-08-19T00:04:04;99106.56;;;27.30;45.23
21803;BME280;18591;47.080;22.214;2022-08-19T00:06:07;99109.69;;;27.27;45.13
21803;BME280;18591;47.080;22.214;2022-08-19T00:08:12;99112.59;;;27.25;45.19
21803;BME280;18591;47.080;22.214;2022-08-19T00:10:15;99106.59;;;27.22;45.06
21803;BME280;18591;47.080;22.214;2022-08-19T00:12:17;99099.69;;;27.18;44.91
21803;BME280;18591;47.080;22.214;2022-08-19T00:14:22;99103.63;;;27.15;44.70
21803;BME280;18591;47.080;22.214;2022-08-19T00:16:25;99096.75;;;27.11;45.14
21803;BME280;18591;47.080;22.214;2022-08-19T00:18:27;99093.31;;;27.09;44.86
21803;BME280;18591;47.080;22.214;2022-08-19T00:20:30;99092.97;;;27.04;44.88
21803;BME280;18591;47.080;22.214;2022-08-19T00:22:33;99086.78;;;27.02;45.16
21803;BME280;18591;47.080;22.214;2022-08-19T00:24:35;99086.97;;;27.00;45.44
21803;BME280;18591;47.080;22.214;2022-08-19T00:26:40;99082.13;;;26.94;45.04
21803;BME280;18591;47.080;22.214;2022-08-19T00:28:43;99082.66;;;26.89;45.29
21803;BME280;18591;47.080;22.214;2022-08-19T00:30:46;99078.19;;;26.88;45.84
21803;BME280;18591;47.080;22.214;2022-08-19T00:32:51;99077.34;;;26.88;45.63
21803;BME280;18591;47.080;22.214;2022-08-19T00:34:56;99083.38;;;26.83;45.51
21803;BME280;18591;47.080;22.214;2022-08-19T00:36:59;99084.56;;;26.81;45.43
21803;BME280;18591;47.080;22.214;2022-08-19T00:39:01;99078.56;;;26.77;45.72
21803;BME280;18591;47.080;22.214;2022-08-19T00:41:05;99084.06;;;26.77;45.88
21803;BME280;18591;47.080;22.214;2022-08-19T00:43:12;99088.03;;;26.75;46.36
21803;BME280;18591;47.080;22.214;2022-08-19T00:45:18;99085.28;;;26.75;45.48
21803;BME280;18591;47.080;22.214;2022-08-19T00:47:22;99096.63;;;26.71;45.69
21803;BME280;18591;47.080;22.214;2022-08-19T00:49:34;99105.44;;;26.67;45.71
21803;BME280;18591;47.080;22.214;2022-08-19T00:51:37;99096.28;;;26.66;45.76
21803;BME280;18591;47.080;22.214;2022-08-19T00:53:40;99098.19;;;26.66;45.82
21803;BME280;18591;47.080;22.214;2022-08-19T00:55:45;99095.63;;;26.64;45.85
21803;BME280;18591;47.080;22.214;2022-08-19T00:57:58;99100.44;;;26.62;45.98
21803;BME280;18591;47.080;22.214;2022-08-19T01:00:05;99101.44;;;26.61;45.75
21803;BME280;18591;47.080;22.214;2022-08-19T01:02:08;99100.78;;;26.59;46.07
21803;BME280;18591;47.080;22.214;2022-08-19T01:04:11;99104.91;;;26.55;45.82
21803;BME280;18591;47.080;22.214;2022-08-19T01:06:13;99096.63;;;26.55;46.09
21803;BME280;18591;47.080;22.214;2022-08-19T01:08:21;99110.03;;;26.50;46.11
21803;BME280;18591;47.080;22.214;2022-08-19T01:10:35;99104.31;;;26.43;46.53
21803;BME280;18591;47.080;22.214;2022-08-19T01:12:39;99106.91;;;26.45;46.39
21803;BME280;18591;47.080;22.214;2022-08-19T01:14:42;99102.13;;;26.47;46.42
21803;BME280;18591;47.080;22.214;2022-08-19T01:16:45;99097.97;;;26.43;46.34
21803;BME280;18591;47.080;22.214;2022-08-19T01:18:49;99098.16;;;26.41;46.37
21803;BME280;18591;47.080;22.214;2022-08-19T01:20:54;99101.75;;;26.42;46.44
21803;BME280;18591;47.080;22.214;2022-08-19T01:23:00;99102.97;;;26.39;46.82
21803;BME280;18591;47.080;22.214;2022-08-19T01:25:03;99100.72;;;26.35;46.35
21803;BME280;18591;47.080;22.214;2022-08-19T01:27:16;99103.97;;;26.30;46.58
21803;BME280;18591;47.080;22.214;2022-08-19T01:29:18;99105.38;;;26.26;46.72
21803;BME280;18591;47.080;22.214;2022-08-19T01:31:26;99109.13;;;26.25;47.03
21803;BME280;18591;47.080;22.214;2022-08-19T01:33:28;99108.28;;;26.24;46.84
21803;BME280;18591;47.080;22.214;2022-08-19T01:35:35;99114.63;;;26.25;46.99
21803;BME280;18591;47.080;22.214;2022-08-19T01:37:49;99110.81;;;26.10;48.54
21803;BME280;18591;47.080;22.214;2022-08-19T01:39:53;99104.78;;;25.98;48.72
21803;BME280;18591;47.080;22.214;2022-08-19T01:41:55;99100.72;;;25.76;49.22
21803;BME280;18591;47.080;22.214;2022-08-19T01:43:58;99107.41;;;25.73;48.72
21803;BME280;18591;47.080;22.214;2022-08-19T01:46:19;99101.53;;;25.68;49.12
21803;BME280;18591;47.080;22.214;2022-08-19T01:48:26;99096.53;;;25.63;49.23
21803;BME280;18591;47.080;22.214;2022-08-19T01:50:32;99103.78;;;25.64;48.88
21803;BME280;18591;47.080;22.214;2022-08-19T01:52:36;99101.03;;;25.64;49.39
21803;BME280;18591;47.080;22.214;2022-08-19T01:54:38;99097.56;;;25.62;49.47
21803;BME280;18591;47.080;22.214;2022-08-19T01:56:41;99107.72;;;25.62;49.47
21803;BME280;18591;47.080;22.214;2022-08-19T01:59:12;99099.47;;;25.62;49.65
21803;BME280;18591;47.080;22.214;2022-08-19T02:01:16;99105.69;;;25.72;48.55
21803;BME280;18591;47.080;22.214;2022-08-19T02:03:19;99107.41;;;25.73;48.78
21803;BME280;18591;47.080;22.214;2022-08-19T02:05:21;99109.16;;;25.74;49.13
21803;BME280;18591;47.080;22.214;2022-08-19T02:07:27;99118.78;;;25.78;49.20
21803;BME280;18591;47.080;22.214;2022-08-19T02:09:31;99118.25;;;25.75;48.58
21803;BME280;18591;47.080;22.214;2022-08-19T02:11:35;99124.13;;;25.80;48.81
21803;BME280;18591;47.080;22.214;2022-08-19T02:13:40;99116.72;;;25.80;48.35
21803;BME280;18591;47.080;22.214;2022-08-19T02:15:42;99128.44;;;25.82;48.42
21803;BME280;18591;47.080;22.214;2022-08-19T02:17:46;99125.69;;;25.82;48.32
21803;BME280;18591;47.080;22.214;2022-08-19T02:19:48;99122.75;;;25.84;48.53
21803;BME280;18591;47.080;22.214;2022-08-19T02:21:51;99122.09;;;25.82;48.33
21803;BME280;18591;47.080;22.214;2022-08-19T02:23:56;99113.97;;;25.80;48.45
21803;BME280;18591;47.080;22.214;2022-08-19T02:25:58;99114.13;;;25.79;47.95
21803;BME280;18591;47.080;22.214;2022-08-19T02:28:01;99110.72;;;25.77;48.29
21803;BME280;18591;47.080;22.214;2022-08-19T02:30:05;99110.16;;;25.73;48.82
21803;BME280;18591;47.080;22.214;2022-08-19T02:32:07;99110.88;;;25.75;48.56
21803;BME280;18591;47.080;22.214;2022-08-19T02:34:09;99105.69;;;25.72;48.73
21803;BME280;18591;47.080;22.214;2022-08-19T02:36:13;99101.22;;;25.71;48.60
21803;BME280;18591;47.080;22.214;2022-08-19T02:38:16;99097.94;;;25.68;48.67
21803;BME280;18591;47.080;22.214;2022-08-19T02:40:29;99102.56;;;25.59;49.33
21803;BME280;18591;47.080;22.214;2022-08-19T02:42:35;99096.09;;;25.42;49.80
21803;BME280;18591;47.080;22.214;2022-08-19T02:44:38;99092.84;;;25.38;50.23
21803;BME280;18591;47.080;22.214;2022-08-19T02:46:41;99091.91;;;25.30;50.09
21803;BME280;18591;47.080;22.214;2022-08-19T02:48:43;99092.63;;;25.06;51.00
21803;BME280;18591;47.080;22.214;2022-08-19T02:50:47;99097.72;;;25.01;50.69
21803;BME280;18591;47.080;22.214;2022-08-19T02:52:54;99094.13;;;25.00;51.01
21803;BME280;18591;47.080;22.214;2022-08-19T02:54:59;99091.38;;;25.00;50.79
21803;BME280;18591;47.080;22.214;2022-08-19T02:57:02;99091.06;;;25.03;50.81
21803;BME280;18591;47.080;22.214;2022-08-19T02:59:05;99089.78;;;24.89;51.22
21803;BME280;18591;47.080;22.214;2022-08-19T03:03:25;99077.03;;;24.62;51.73
21803;BME280;18591;47.080;22.214;2022-08-19T03:05:27;99078.81;;;24.71;51.20
21803;BME280;18591;47.080;22.214;2022-08-19T03:07:49;99079.34;;;24.75;51.30
21803;BME280;18591;47.080;22.214;2022-08-19T03:09:52;99083.59;;;24.69;51.43
21803;BME280;18591;47.080;22.214;2022-08-19T03:11:57;99074.19;;;24.72;51.26
21803;BME280;18591;47.080;22.214;2022-08-19T03:14:00;99071.28;;;24.55;51.91
21803;BME280;18591;47.080;22.214;2022-08-19T03:16:05;99058.25;;;24.40;52.29
21803;BME280;18591;47.080;22.214;2022-08-19T03:18:07;99060.81;;;24.51;51.78
21803;BME280;18591;47.080;22.214;2022-08-19T03:20:10;99067.16;;;24.51;51.38
21803;BME280;18591;47.080;22.214;2022-08-19T03:22:13;99065.31;;;24.60;51.17
21803;BME280;18591;47.080;22.214;2022-08-19T03:24:17;99063.38;;;24.34;52.18
21803;BME280;18591;47.080;22.214;2022-08-19T03:26:20;99058.59;;;24.37;51.76
21803;BME280;18591;47.080;22.214;2022-08-19T03:28:23;99064.47;;;24.24;52.31
21803;BME280;18591;47.080;22.214;2022-08-19T03:30:26;99057.50;;;24.29;51.61
21803;BME280;18591;47.080;22.214;2022-08-19T03:32:29;99056.56;;;24.39;51.21
21803;BME280;18591;47.080;22.214;2022-08-19T03:34:36;99062.13;;;24.47;51.52
21803;BME280;18591;47.080;22.214;2022-08-19T03:36:38;99064.63;;;24.40;51.52
21803;BME280;18591;47.080;22.214;2022-08-19T03:38:44;99066.59;;;24.48;51.20
21803;BME280;18591;47.080;22.214;2022-08-19T03:40:48;99062.50;;;24.34;52.22
21803;BME280;18591;47.080;22.214;2022-08-19T03:42:50;99057.88;;;24.34;51.50
21803;BME280;18591;47.080;22.214;2022-08-19T03:44:53;99067.63;;;24.47;51.10
21803;BME280;18591;47.080;22.214;2022-08-19T03:46:57;99061.66;;;24.33;52.30
21803;BME280;18591;47.080;22.214;2022-08-19T03:49:01;99067.69;;;24.37;51.50
21803;BME280;18591;47.080;22.214;2022-08-19T03:51:17;99074.59;;;24.41;52.02
21803;BME280;18591;47.080;22.214;2022-08-19T03:53:33;99075.06;;;24.37;52.01
21803;BME280;18591;47.080;22.214;2022-08-19T03:55:40;99080.78;;;24.43;52.13
21803;BME280;18591;47.080;22.214;2022-08-19T03:57:46;99083.63;;;24.51;52.06
21803;BME280;18591;47.080;22.214;2022-08-19T03:59:50;99083.69;;;24.42;52.62
21803;BME280;18591;47.080;22.214;2022-08-19T04:01:54;99088.66;;;24.56;51.59
21803;BME280;18591;47.080;22.214;2022-08-19T04:04:00;99085.34;;;24.52;52.38
21803;BME280;18591;47.080;22.214;2022-08-19T04:06:17;99091.88;;;24.51;52.21
21803;BME280;18591;47.080;22.214;2022-08-19T04:08:20;99091.78;;;24.61;51.88
21803;BME280;18591;47.080;22.214;2022-08-19T04:10:23;99090.28;;;24.67;51.97
21803;BME280;18591;47.080;22.214;2022-08-19T04:12:26;99090.50;;;24.73;51.56
21803;BME280;18591;47.080;22.214;2022-08-19T04:14:29;99095.34;;;24.80;51.33
21803;BME280;18591;47.080;22.214;2022-08-19T04:16:32;99100.19;;;24.86;51.17
21803;BME280;18591;47.080;22.214;2022-08-19T04:18:37;99098.72;;;24.73;51.63
21803;BME280;18591;47.080;22.214;2022-08-19T04:20:45;99103.69;;;24.70;51.95
21803;BME280;18591;47.080;22.214;2022-08-19T04:22:47;99108.34;;;24.51;52.62
21803;BME280;18591;47.080;22.214;2022-08-19T04:24:50;99106.94;;;24.47;52.57
21803;BME280;18591;47.080;22.214;2022-08-19T04:26:55;99112.03;;;24.60;52.27
21803;BME280;18591;47.080;22.214;2022-08-19T04:28:59;99109.13;;;24.62;51.84
21803;BME280;18591;47.080;22.214;2022-08-19T04:31:05;99111.41;;;24.66;51.84
21803;BME280;18591;47.080;22.214;2022-08-19T04:33:08;99119.38;;;24.77;51.38
21803;BME280;18591;47.080;22.214;2022-08-19T04:35:10;99108.88;;;24.73;51.85
21803;BME280;18591;47.080;22.214;2022-08-19T04:37:19;99105.53;;;24.87;51.26
21803;BME280;18591;47.080;22.214;2022-08-19T04:39:28;99098.53;;;24.93;51.18
21803;BME280;18591;47.080;22.214;2022-08-19T04:41:50;99099.13;;;25.05;50.90
21803;BME280;18591;47.080;22.214;2022-08-19T04:44:11;99099.41;;;25.19;50.64
21803;BME280;18591;47.080;22.214;2022-08-19T04:46:14;99095.84;;;25.27;50.59
21803;BME280;18591;47.080;22.214;2022-08-19T04:48:36;99093.47;;;25.32;50.93
21803;BME280;18591;47.080;22.214;2022-08-19T04:50:50;99101.47;;;25.44;50.77
21803;BME280;18591;47.080;22.214;2022-08-19T04:52:54;99104.38;;;25.50;50.68
21803;BME280;18591;47.080;22.214;2022-08-19T04:54:58;99113.56;;;25.59;50.58
21803;BME280;18591;47.080;22.214;2022-08-19T04:57:00;99119.09;;;25.67;50.45
21803;BME280;18591;47.080;22.214;2022-08-19T04:59:02;99117.41;;;25.74;50.17
21803;BME280;18591;47.080;22.214;2022-08-19T05:01:05;99121.03;;;25.83;50.64
21803;BME280;18591;47.080;22.214;2022-08-19T05:03:07;99129.00;;;25.94;50.88
21803;BME280;18591;47.080;22.214;2022-08-19T05:05:10;99131.47;;;26.05;51.07
21803;BME280;18591;47.080;22.214;2022-08-19T05:07:12;99135.22;;;26.04;51.55
21803;BME280;18591;47.080;22.214;2022-08-19T05:09:15;99138.38;;;26.18;51.05
21803;BME280;18591;47.080;22.214;2022-08-19T05:11:22;99144.41;;;26.21;51.34
21803;BME280;18591;47.080;22.214;2022-08-19T05:13:27;99147.34;;;26.28;50.97
21803;BME280;18591;47.080;22.214;2022-08-19T05:15:30;99147.03;;;26.39;50.76
21803;BME280;18591;47.080;22.214;2022-08-19T05:17:35;99150.84;;;26.46;50.56
21803;BME280;18591;47.080;22.214;2022-08-19T05:19:39;99154.63;;;26.54;50.93
21803;BME280;18591;47.080;22.214;2022-08-19T05:22:00;99144.66;;;26.61;50.38
21803;BME280;18591;47.080;22.214;2022-08-19T05:24:22;99136.25;;;26.62;51.04
21803;BME280;18591;47.080;22.214;2022-08-19T05:26:25;99141.75;;;26.62;51.01
21803;BME280;18591;47.080;22.214;2022-08-19T05:28:28;99146.75;;;26.75;50.72
21803;BME280;18591;47.080;22.214;2022-08-19T05:30:32;99146.91;;;26.74;51.26
21803;BME280;18591;47.080;22.214;2022-08-19T05:32:48;99137.78;;;26.81;51.33
21803;BME280;18591;47.080;22.214;2022-08-19T05:34:54;99132.09;;;26.91;50.72
21803;BME280;18591;47.080;22.214;2022-08-19T05:36:58;99130.56;;;26.88;51.32
21803;BME280;18591;47.080;22.214;2022-08-19T05:39:02;99134.00;;;26.82;51.49
21803;BME280;18591;47.080;22.214;2022-08-19T05:41:12;99116.63;;;26.90;51.68
21803;BME280;18591;47.080;22.214;2022-08-19T05:43:15;99116.78;;;26.88;51.85
21803;BME280;18591;47.080;22.214;2022-08-19T05:45:17;99115.88;;;27.12;51.50
21803;BME280;18591;47.080;22.214;2022-08-19T05:47:20;99124.31;;;27.27;51.32
21803;BME280;18591;47.080;22.214;2022-08-19T05:49:23;99127.03;;;27.52;50.41
21803;BME280;18591;47.080;22.214;2022-08-19T05:51:27;99132.78;;;27.73;49.71
21803;BME280;18591;47.080;22.214;2022-08-19T05:53:33;99133.81;;;27.89;48.87
21803;BME280;18591;47.080;22.214;2022-08-19T05:55:38;99137.88;;;28.01;48.88
21803;BME280;18591;47.080;22.214;2022-08-19T05:57:41;99140.44;;;28.11;49.60
21803;BME280;18591;47.080;22.214;2022-08-19T05:59:43;99136.78;;;28.10;49.93
21803;BME280;18591;47.080;22.214;2022-08-19T06:01:50;99135.88;;;28.18;49.39
21803;BME280;18591;47.080;22.214;2022-08-19T06:03:53;99128.28;;;28.20;50.33
21803;BME280;18591;47.080;22.214;2022-08-19T06:05:56;99135.44;;;28.37;49.72
21803;BME280;18591;47.080;22.214;2022-08-19T06:08:00;99137.13;;;28.47;49.19
21803;BME280;18591;47.080;22.214;2022-08-19T06:10:08;99139.31;;;28.51;48.49
21803;BME280;18591;47.080;22.214;2022-08-19T06:12:11;99142.59;;;28.55;48.75
21803;BME280;18591;47.080;22.214;2022-08-19T06:14:17;99146.69;;;28.59;48.36
21803;BME280;18591;47.080;22.214;2022-08-19T06:16:28;99133.47;;;28.69;48.68
21803;BME280;18591;47.080;22.214;2022-08-19T06:18:35;99140.78;;;28.85;48.60
21803;BME280;18591;47.080;22.214;2022-08-19T06:20:40;99136.06;;;28.94;48.41
21803;BME280;18591;47.080;22.214;2022-08-19T06:22:56;99138.56;;;29.03;48.57
21803;BME280;18591;47.080;22.214;2022-08-19T06:24:58;99138.00;;;29.08;48.59
21803;BME280;18591;47.080;22.214;2022-08-19T06:27:03;99137.84;;;29.09;48.58
21803;BME280;18591;47.080;22.214;2022-08-19T06:29:10;99135.91;;;29.10;48.87
21803;BME280;18591;47.080;22.214;2022-08-19T06:31:27;99141.56;;;29.17;49.01
21803;BME280;18591;47.080;22.214;2022-08-19T06:33:30;99147.97;;;29.17;49.04
21803;BME280;18591;47.080;22.214;2022-08-19T06:35:33;99146.63;;;29.28;48.04
21803;BME280;18591;47.080;22.214;2022-08-19T06:37:40;99149.03;;;29.31;48.45
21803;BME280;18591;47.080;22.214;2022-08-19T06:39:44;99157.44;;;29.38;48.71
21803;BME280;18591;47.080;22.214;2022-08-19T06:41:52;99154.97;;;29.43;48.41
21803;BME280;18591;47.080;22.214;2022-08-19T06:43:59;99156.91;;;29.57;48.45
21803;BME280;18591;47.080;22.214;2022-08-19T06:46:11;99150.94;;;29.45;48.68
21803;BME280;18591;47.080;22.214;2022-08-19T06:48:15;99151.81;;;29.46;48.82
21803;BME280;18591;47.080;22.214;2022-08-19T06:50:19;99163.56;;;29.48;48.52
21803;BME280;18591;47.080;22.214;2022-08-19T06:52:21;99173.84;;;29.54;48.31
21803;BME280;18591;47.080;22.214;2022-08-19T06:54:29;99165.38;;;29.56;48.54
21803;BME280;18591;47.080;22.214;2022-08-19T06:56:38;99162.72;;;29.62;48.55
21803;BME280;18591;47.080;22.214;2022-08-19T06:58:40;99168.94;;;29.79;48.62
21803;BME280;18591;47.080;22.214;2022-08-19T07:00:43;99160.34;;;29.89;48.63
21803;BME280;18591;47.080;22.214;2022-08-19T07:02:45;99160.63;;;29.94;48.40
21803;BME280;18591;47.080;22.214;2022-08-19T07:04:59;99167.19;;;30.08;48.39
21803;BME280;18591;47.080;22.214;2022-08-19T07:07:13;99161.16;;;30.19;48.18
21803;BME280;18591;47.080;22.214;2022-08-19T07:09:21;99168.31;;;30.28;47.95
21803;BME280;18591;47.080;22.214;2022-08-19T07:11:24;99160.09;;;30.35;48.42
21803;BME280;18591;47.080;22.214;2022-08-19T07:13:30;99159.97;;;30.43;48.08
21803;BME280;18591;47.080;22.214;2022-08-19T07:15:36;99155.38;;;30.50;48.11
21803;BME280;18591;47.080;22.214;2022-08-19T07:17:40;99160.63;;;30.45;47.61
21803;BME280;18591;47.080;22.214;2022-08-19T07:19:43;99160.38;;;30.62;47.25
21803;BME280;18591;47.080;22.214;2022-08-19T07:21:49;99152.31;;;30.81;46.96
21803;BME280;18591;47.080;22.214;2022-08-19T07:23:56;99157.94;;;30.88;46.27
21803;BME280;18591;47.080;22.214;2022-08-19T07:26:08;99159.28;;;30.99;46.33
21803;BME280;18591;47.080;22.214;2022-08-19T07:28:11;99158.44;;;30.98;45.23
21803;BME280;18591;47.080;22.214;2022-08-19T07:30:28;99158.41;;;31.20;46.00
21803;BME280;18591;47.080;22.214;2022-08-19T07:32:32;99155.53;;;31.35;45.70
21803;BME280;18591;47.080;22.214;2022-08-19T07:34:35;99155.16;;;31.38;44.27
21803;BME280;18591;47.080;22.214;2022-08-19T07:36:42;99155.84;;;31.46;44.48
21803;BME280;18591;47.080;22.214;2022-08-19T07:38:47;99150.00;;;31.63;44.15
21803;BME280;18591;47.080;22.214;2022-08-19T07:40:50;99158.34;;;31.70;43.83
21803;BME280;18591;47.080;22.214;2022-08-19T07:42:53;99154.47;;;31.64;43.15
21803;BME280;18591;47.080;22.214;2022-08-19T07:44:56;99153.28;;;31.80;43.25
21803;BME280;18591;47.080;22.214;2022-08-19T07:46:59;99162.47;;;31.80;42.60
21803;BME280;18591;47.080;22.214;2022-08-19T07:49:03;99165.03;;;31.82;42.98
21803;BME280;18591;47.080;22.214;2022-08-19T07:51:07;99156.34;;;31.92;41.99
21803;BME280;18591;47.080;22.214;2022-08-19T07:53:11;99153.53;;;31.85;42.28
21803;BME280;18591;47.080;22.214;2022-08-19T07:55:14;99164.47;;;31.93;41.90
21803;BME280;18591;47.080;22.214;2022-08-19T07:57:37;99154.50;;;32.05;41.97
21803;BME280;18591;47.080;22.214;2022-08-19T08:02:34;99141.31;;;32.14;41.45
21803;BME280;18591;47.080;22.214;2022-08-19T08:04:36;99135.09;;;32.19;41.51
21803;BME280;18591;47.080;22.214;2022-08-19T08:06:57;99134.06;;;32.20;41.52
21803;BME280;18591;47.080;22.214;2022-08-19T08:09:28;99136.66;;;32.28;40.93
21803;BME280;18591;47.080;22.214;2022-08-19T08:11:31;99139.88;;;32.38;40.89
21803;BME280;18591;47.080;22.214;2022-08-19T08:13:38;99137.75;;;32.47;40.83
21803;BME280;18591;47.080;22.214;2022-08-19T08:15:43;99150.66;;;32.61;40.83
21803;BME280;18591;47.080;22.214;2022-08-19T08:17:46;99140.41;;;32.75;40.97
21803;BME280;18591;47.080;22.214;2022-08-19T08:19:53;99131.84;;;32.83;41.13
21803;BME280;18591;47.080;22.214;2022-08-19T08:21:57;99139.78;;;32.93;40.47
21803;BME280;18591;47.080;22.214;2022-08-19T08:24:01;99141.09;;;33.04;39.47
21803;BME280;18591;47.080;22.214;2022-08-19T08:26:03;99128.03;;;33.11;39.16
21803;BME280;18591;47.080;22.214;2022-08-19T08:28:06;99132.13;;;33.15;38.29
21803;BME280;18591;47.080;22.214;2022-08-19T08:30:23;99129.75;;;33.18;37.54
21803;BME280;18591;47.080;22.214;2022-08-19T08:32:32;99136.19;;;33.26;37.66
21803;BME280;18591;47.080;22.214;2022-08-19T08:34:37;99129.75;;;33.32;38.16
21803;BME280;18591;47.080;22.214;2022-08-19T08:36:42;99140.69;;;33.40;37.83
21803;BME280;18591;47.080;22.214;2022-08-19T08:38:47;99126.09;;;33.45;36.21
21803;BME280;18591;47.080;22.214;2022-08-19T08:40:52;99128.47;;;33.54;37.21
21803;BME280;18591;47.080;22.214;2022-08-19T08:43:06;99127.78;;;33.72;36.76
21803;BME280;18591;47.080;22.214;2022-08-19T08:45:17;99128.16;;;33.82;36.62
21803;BME280;18591;47.080;22.214;2022-08-19T08:47:22;99130.06;;;33.95;37.40
21803;BME280;18591;47.080;22.214;2022-08-19T08:52:04;99121.91;;;34.07;36.26
21803;BME280;18591;47.080;22.214;2022-08-19T08:54:10;99127.84;;;34.17;36.68
21803;BME280;18591;47.080;22.214;2022-08-19T08:56:14;99122.69;;;34.21;35.21
21803;BME280;18591;47.080;22.214;2022-08-19T08:58:29;99116.63;;;34.31;35.04
21803;BME280;18591;47.080;22.214;2022-08-19T09:00:38;99117.41;;;34.44;36.03
21803;BME280;18591;47.080;22.214;2022-08-19T09:02:43;99112.25;;;34.48;34.82
21803;BME280;18591;47.080;22.214;2022-08-19T09:04:53;99109.63;;;34.60;34.67
21803;BME280;18591;47.080;22.214;2022-08-19T09:09:40;99108.84;;;34.78;32.65
21803;BME280;18591;47.080;22.214;2022-08-19T09:11:56;99103.59;;;34.88;32.31
21803;BME280;18591;47.080;22.214;2022-08-19T09:16:36;99107.19;;;34.95;32.58
21803;BME280;18591;47.080;22.214;2022-08-19T09:18:56;99105.34;;;34.89;31.61
21803;BME280;18591;47.080;22.214;2022-08-19T09:21:00;99103.16;;;34.91;31.35
21803;BME280;18591;47.080;22.214;2022-08-19T09:23:03;99101.00;;;34.93;31.51
21803;BME280;18591;47.080;22.214;2022-08-19T09:25:09;99100.94;;;35.00;30.34
21803;BME280;18591;47.080;22.214;2022-08-19T09:27:12;99099.81;;;35.07;30.86
21803;BME280;18591;47.080;22.214;2022-08-19T09:29:19;99104.75;;;35.12;30.45
21803;BME280;18591;47.080;22.214;2022-08-19T09:31:26;99105.50;;;35.19;30.55
21803;BME280;18591;47.080;22.214;2022-08-19T09:33:29;99104.63;;;35.25;29.76
21803;BME280;18591;47.080;22.214;2022-08-19T09:35:32;99108.41;;;35.31;29.59
21803;BME280;18591;47.080;22.214;2022-08-19T09:37:55;99098.56;;;35.28;29.67
21803;BME280;18591;47.080;22.214;2022-08-19T09:40:01;99104.31;;;35.33;29.84
21803;BME280;18591;47.080;22.214;2022-08-19T09:42:03;99101.91;;;35.37;29.83
21803;BME280;18591;47.080;22.214;2022-08-19T09:44:17;99094.78;;;35.41;29.51
21803;BME280;18591;47.080;22.214;2022-08-19T09:46:20;99097.06;;;35.51;29.28
21803;BME280;18591;47.080;22.214;2022-08-19T09:48:26;99101.75;;;35.50;29.26
21803;BME280;18591;47.080;22.214;2022-08-19T09:50:28;99102.78;;;35.38;29.80
21803;BME280;18591;47.080;22.214;2022-08-19T09:52:35;99102.84;;;35.49;30.10
21803;BME280;18591;47.080;22.214;2022-08-19T09:54:55;99104.78;;;35.49;29.14
21803;BME280;18591;47.080;22.214;2022-08-19T09:56:59;99104.06;;;35.60;29.54
21803;BME280;18591;47.080;22.214;2022-08-19T09:59:08;99101.09;;;35.73;29.36
21803;BME280;18591;47.080;22.214;2022-08-19T10:01:17;99103.91;;;35.73;29.21
21803;BME280;18591;47.080;22.214;2022-08-19T10:03:20;99102.72;;;35.81;29.97
21803;BME280;18591;47.080;22.214;2022-08-19T10:05:30;99100.34;;;35.85;28.64
21803;BME280;18591;47.080;22.214;2022-08-19T10:07:56;99087.75;;;35.75;28.95
21803;BME280;18591;47.080;22.214;2022-08-19T10:09:59;99089.38;;;35.83;29.02
21803;BME280;18591;47.080;22.214;2022-08-19T10:12:04;99094.19;;;35.76;27.14
21803;BME280;18591;47.080;22.214;2022-08-19T10:14:07;99092.34;;;35.70;26.78
21803;BME280;18591;47.080;22.214;2022-08-19T10:16:14;99095.22;;;35.82;27.22
21803;BME280;18591;47.080;22.214;2022-08-19T10:18:19;99091.25;;;35.89;26.46
21803;BME280;18591;47.080;22.214;2022-08-19T10:20:22;99092.25;;;35.95;27.07
21803;BME280;18591;47.080;22.214;2022-08-19T10:22:27;99093.22;;;36.07;26.91
21803;BME280;18591;47.080;22.214;2022-08-19T10:24:32;99093.34;;;36.12;27.10
21803;BME280;18591;47.080;22.214;2022-08-19T10:26:38;99089.97;;;36.22;27.43
21803;BME280;18591;47.080;22.214;2022-08-19T10:28:43;99088.34;;;36.33;27.28
21803;BME280;18591;47.080;22.214;2022-08-19T10:30:47;99090.41;;;36.37;27.41
21803;BME280;18591;47.080;22.214;2022-08-19T10:32:49;99083.47;;;36.40;27.13
21803;BME280;18591;47.080;22.214;2022-08-19T10:34:52;99080.81;;;36.45;26.88
21803;BME280;18591;47.080;22.214;2022-08-19T10:36:58;99084.09;;;36.42;26.40
21803;BME280;18591;47.080;22.214;2022-08-19T10:39:06;99078.91;;;36.46;26.15
21803;BME280;18591;47.080;22.214;2022-08-19T10:41:16;99080.59;;;36.47;26.16
21803;BME280;18591;47.080;22.214;2022-08-19T10:43:19;99082.00;;;36.56;26.78
21803;BME280;18591;47.080;22.214;2022-08-19T10:45:25;99073.28;;;36.64;27.04
21803;BME280;18591;47.080;22.214;2022-08-19T10:47:29;99075.34;;;36.69;26.44
21803;BME280;18591;47.080;22.214;2022-08-19T10:49:32;99077.41;;;36.73;26.46
21803;BME280;18591;47.080;22.214;2022-08-19T10:51:56;99070.47;;;36.76;26.55
21803;BME280;18591;47.080;22.214;2022-08-19T10:54:23;99062.78;;;36.71;26.26
21803;BME280;18591;47.080;22.214;2022-08-19T10:56:34;99059.53;;;36.74;26.44
21803;BME280;18591;47.080;22.214;2022-08-19T10:58:58;99065.84;;;36.81;26.38
21803;BME280;18591;47.080;22.214;2022-08-19T11:01:00;99070.72;;;36.86;27.03
21803;BME280;18591;47.080;22.214;2022-08-19T11:03:03;99072.44;;;36.99;26.38
21803;BME280;18591;47.080;22.214;2022-08-19T11:05:06;99069.44;;;37.00;25.92
21803;BME280;18591;47.080;22.214;2022-08-19T11:07:13;99070.75;;;36.98;26.36
21803;BME280;18591;47.080;22.214;2022-08-19T11:09:20;99068.72;;;37.05;26.18
21803;BME280;18591;47.080;22.214;2022-08-19T11:11:25;99066.38;;;37.02;25.73
21803;BME280;18591;47.080;22.214;2022-08-19T11:13:33;99061.53;;;37.09;25.81